Terminal Aerodrome Forecast
Issued by NWS

Home | Current Version | Previous Version | Text Only | Print | Product List | Glossary Off
Versions: 1 2 3 4 5 6 7 8 9 10 11 12

000
FTUS44 KTSA 192320
TAFXNA
TAF
KXNA 192320Z 2000/2024 18011KT P6SM BKN250
     FM200500 19013G21KT P6SM BKN012 WS020/21045KT
     FM201600 19015G24KT P6SM BKN025
     FM202200 18014KT P6SM BKN035=

USA.gov is the U.S. government's official web portal to all federal, state and local government web resources and services.